createdAt,value
2023-03-10T00:00:39.993Z,14.80
2023-03-10T00:03:07.813Z,14.90
2023-03-10T00:05:36.383Z,14.37
2023-03-10T00:08:03.625Z,13.53
2023-03-10T00:10:30.638Z,16.00
2023-03-10T00:12:57.803Z,11.67
2023-03-10T00:15:26.424Z,12.43
2023-03-10T00:17:55.808Z,17.57
2023-03-10T00:20:23.785Z,18.17
2023-03-10T00:22:50.834Z,17.27
2023-03-10T00:25:17.928Z,17.90
2023-03-10T00:27:44.938Z,16.27
2023-03-10T00:30:12.292Z,17.70
2023-03-10T00:32:39.515Z,15.87
2023-03-10T00:35:07.354Z,15.50
2023-03-10T00:37:38.191Z,14.50
2023-03-10T00:40:10.957Z,16.57
2023-03-10T00:42:38.026Z,15.57
2023-03-10T00:45:05.745Z,15.13
2023-03-10T00:47:33.155Z,18.07
2023-03-10T00:50:00.420Z,15.90
2023-03-10T00:52:27.477Z,17.83
2023-03-10T00:54:55.019Z,16.10
2023-03-10T00:57:22.009Z,13.63
2023-03-10T00:59:51.893Z,14.37
2023-03-10T01:02:20.515Z,15.90
2023-03-10T01:04:48.509Z,14.50
2023-03-10T01:07:15.644Z,15.10
2023-03-10T01:09:42.661Z,14.37
2023-03-10T01:12:09.868Z,22.93
2023-03-10T01:14:37.160Z,16.10
2023-03-10T01:17:05.530Z,15.13
2023-03-10T01:19:32.834Z,16.70
2023-03-10T01:21:59.858Z,18.87
2023-03-10T01:24:26.874Z,15.93
2023-03-10T01:26:53.894Z,15.70
2023-03-10T01:29:20.972Z,16.93
2023-03-10T01:31:48.101Z,15.23
2023-03-10T01:34:15.250Z,17.63
2023-03-10T01:36:42.752Z,16.00
2023-03-10T01:39:09.802Z,17.53
2023-03-10T01:41:42.075Z,17.97
2023-03-10T01:44:20.130Z,17.97
2023-03-10T01:46:55.352Z,19.80
2023-03-10T01:49:37.598Z,18.10
2023-03-10T01:52:17.876Z,18.27
2023-03-10T01:55:13.777Z,17.90
2023-03-10T01:57:49.342Z,19.97
2023-03-10T02:00:17.412Z,19.60
2023-03-10T02:03:17.732Z,19.17
2023-03-10T02:05:51.704Z,16.83
2023-03-10T02:08:20.565Z,22.23
2023-03-10T02:10:48.573Z,18.60
2023-03-10T02:13:15.619Z,20.13
2023-03-10T02:15:42.837Z,25.43
2023-03-10T02:18:13.806Z,22.83
2023-03-10T02:20:53.905Z,19.17
2023-03-10T02:24:07.603Z,19.07
2023-03-10T02:27:22.891Z,19.90
2023-03-10T02:30:04.064Z,20.23
2023-03-10T02:32:37.214Z,20.77
2023-03-10T02:35:05.688Z,19.53
2023-03-10T02:37:35.440Z,16.63
2023-03-10T02:40:05.298Z,16.50
2023-03-10T02:42:36.107Z,16.57
2023-03-10T02:45:04.284Z,19.37
2023-03-10T02:47:31.321Z,18.23
2023-03-10T02:49:58.305Z,20.57
2023-03-10T02:52:50.564Z,18.00
2023-03-10T02:55:18.881Z,20.90
2023-03-10T02:57:45.906Z,22.27
2023-03-10T03:00:13.631Z,19.27
2023-03-10T03:02:40.623Z,18.10
2023-03-10T03:05:08.470Z,19.00
2023-03-10T03:07:36.273Z,17.63
2023-03-10T03:10:04.721Z,17.20
2023-03-10T03:12:31.791Z,21.50
2023-03-10T03:14:58.890Z,20.97
2023-03-10T03:17:25.876Z,17.50
2023-03-10T03:19:52.967Z,19.17
2023-03-10T03:22:19.960Z,17.93
2023-03-10T03:24:46.987Z,19.77
2023-03-10T03:27:14.001Z,20.07
2023-03-10T03:29:41.018Z,18.70
2023-03-10T03:32:08.235Z,18.43
2023-03-10T03:35:15.934Z,16.10
2023-03-10T03:37:44.116Z,20.73
2023-03-10T03:40:13.465Z,19.97
2023-03-10T03:42:46.676Z,18.17
2023-03-10T03:45:17.636Z,21.43
2023-03-10T03:47:45.360Z,20.70
2023-03-10T03:50:15.761Z,19.43
2023-03-10T03:52:43.841Z,16.70
2023-03-10T03:55:13.203Z,17.17
2023-03-10T03:57:40.856Z,20.00
2023-03-10T04:00:14.408Z,19.87
2023-03-10T04:02:41.504Z,18.60
2023-03-10T04:05:09.098Z,17.70
2023-03-10T04:07:38.776Z,19.63
2023-03-10T04:10:08.766Z,19.23
2023-03-10T04:12:35.794Z,19.57
2023-03-10T04:15:02.901Z,19.67
2023-03-10T04:17:29.967Z,18.20
2023-03-10T04:20:06.553Z,18.70
2023-03-10T04:22:35.345Z,17.47
2023-03-10T04:25:02.785Z,20.13
2023-03-10T04:27:30.718Z,19.20
2023-03-10T04:29:57.957Z,17.67
2023-03-10T04:32:25.369Z,20.90
2023-03-10T04:34:52.473Z,20.37
2023-03-10T04:37:21.171Z,18.20
2023-03-10T04:39:48.295Z,19.57
2023-03-10T04:42:15.454Z,20.13
2023-03-10T04:44:42.611Z,21.40
2023-03-10T04:47:09.651Z,19.10
2023-03-10T04:49:38.562Z,21.17
2023-03-10T04:52:05.930Z,22.20
2023-03-10T04:54:32.944Z,24.27
2023-03-10T04:57:00.226Z,20.83
2023-03-10T04:59:27.454Z,18.70
2023-03-10T05:01:54.794Z,20.90
2023-03-10T05:04:22.442Z,21.83
2023-03-10T05:06:53.402Z,20.33
2023-03-10T05:09:20.678Z,20.60
2023-03-10T05:11:47.808Z,20.07
2023-03-10T05:14:15.508Z,19.70
2023-03-10T05:16:42.854Z,19.67
2023-03-10T05:19:10.006Z,20.77
2023-03-10T05:21:37.196Z,18.43
2023-03-10T05:24:04.403Z,18.63
2023-03-10T05:26:34.614Z,23.70
2023-03-10T05:29:01.868Z,22.37
2023-03-10T05:31:29.020Z,20.60
2023-03-10T05:33:56.630Z,20.37
2023-03-10T05:36:24.182Z,19.67
2023-03-10T05:38:51.280Z,19.57
2023-03-10T05:41:18.872Z,18.13
2023-03-10T05:43:45.961Z,20.43
2023-03-10T05:46:13.257Z,18.77
2023-03-10T05:48:40.314Z,19.73
2023-03-10T05:51:12.598Z,20.47
2023-03-10T05:53:40.978Z,24.90
2023-03-10T05:56:15.151Z,26.80
2023-03-10T05:58:43.115Z,20.13
2023-03-10T06:01:10.932Z,23.23
2023-03-10T06:03:38.489Z,21.33
2023-03-10T06:06:07.296Z,22.07
2023-03-10T06:08:34.976Z,21.40
2023-03-10T06:11:02.682Z,25.37
2023-03-10T06:13:30.111Z,22.73
2023-03-10T06:16:00.608Z,21.93
2023-03-10T06:18:28.833Z,24.47
2023-03-10T06:20:56.446Z,23.10
2023-03-10T06:23:24.791Z,25.47
2023-03-10T06:26:03.096Z,22.87
2023-03-10T06:28:33.817Z,26.13
2023-03-10T06:31:03.548Z,31.13
2023-03-10T06:33:31.335Z,27.40
2023-03-10T06:35:58.781Z,25.20
2023-03-10T06:38:26.394Z,27.37
2023-03-10T06:40:54.342Z,28.57
2023-03-10T06:43:21.528Z,31.07
2023-03-10T06:45:50.142Z,27.33
2023-03-10T06:48:17.438Z,31.20
2023-03-10T06:50:48.211Z,28.30
2023-03-10T06:53:21.212Z,29.83
2023-03-10T06:56:09.520Z,28.00
2023-03-10T06:58:37.891Z,26.93
2023-03-10T07:01:07.629Z,30.37
2023-03-10T07:03:36.229Z,30.10
2023-03-10T07:06:03.420Z,33.03
2023-03-10T07:08:30.698Z,31.37
2023-03-10T07:10:57.979Z,32.60
2023-03-10T07:13:25.000Z,34.33
2023-03-10T07:15:52.118Z,30.90
2023-03-10T07:18:19.562Z,30.83
2023-03-10T07:20:47.831Z,28.50
2023-03-10T07:23:15.910Z,33.37
2023-03-10T07:25:43.212Z,32.10
2023-03-10T07:28:10.332Z,32.43
2023-03-10T07:30:38.701Z,33.57
2023-03-10T07:33:05.946Z,36.47
2023-03-10T07:35:35.532Z,30.77
2023-03-10T07:38:04.602Z,27.80
2023-03-10T07:40:31.597Z,36.10
2023-03-10T07:42:58.744Z,31.17
2023-03-10T07:45:27.300Z,34.97
2023-03-10T07:47:55.266Z,33.60
2023-03-10T07:50:22.819Z,30.90
2023-03-10T07:52:49.996Z,31.93
2023-03-10T07:55:17.798Z,30.07
2023-03-10T07:57:45.079Z,29.10
2023-03-10T08:00:15.940Z,31.80
2023-03-10T08:02:43.471Z,36.97
2023-03-10T08:05:11.931Z,31.97
2023-03-10T08:07:39.154Z,33.93
2023-03-10T08:10:07.447Z,32.83
2023-03-10T08:12:34.685Z,31.63
2023-03-10T08:15:01.971Z,34.07
2023-03-10T08:17:33.617Z,36.50
2023-03-10T08:20:01.105Z,33.37
2023-03-10T08:22:28.802Z,35.40
2023-03-10T08:24:56.401Z,30.47
2023-03-10T08:27:23.750Z,32.80
2023-03-10T08:29:50.748Z,34.43
2023-03-10T08:32:18.834Z,32.57
2023-03-10T08:34:46.400Z,32.67
2023-03-10T08:37:13.662Z,34.00
2023-03-10T08:39:40.675Z,30.80
2023-03-10T08:42:11.700Z,33.37
2023-03-10T08:44:39.812Z,35.43
2023-03-10T08:47:07.660Z,34.57
2023-03-10T08:49:34.920Z,36.60
2023-03-10T08:52:02.454Z,36.87
2023-03-10T08:54:32.305Z,36.27
2023-03-10T08:56:59.821Z,35.73
2023-03-10T08:59:27.060Z,35.33
2023-03-10T09:01:54.084Z,36.33
2023-03-10T09:04:21.169Z,36.10
2023-03-10T09:06:48.196Z,36.53
2023-03-10T09:09:15.320Z,35.00
2023-03-10T09:11:43.872Z,34.60
2023-03-10T09:14:12.716Z,34.93
2023-03-10T09:16:40.786Z,34.63
2023-03-10T09:19:08.119Z,31.23
2023-03-10T09:21:35.215Z,33.47
2023-03-10T09:24:03.467Z,31.03
2023-03-10T09:26:31.096Z,35.00
2023-03-10T09:28:58.115Z,34.60
2023-03-10T09:31:30.494Z,34.30
2023-03-10T09:33:57.521Z,32.60
2023-03-10T09:36:24.783Z,34.03
2023-03-10T09:38:52.153Z,34.33
2023-03-10T09:41:49.720Z,31.03
2023-03-10T09:44:45.270Z,32.07
2023-03-10T09:47:42.041Z,33.20
2023-03-10T09:50:42.087Z,27.77
2023-03-10T09:53:52.225Z,29.20
2023-03-10T09:56:33.942Z,30.00
2023-03-10T09:59:37.673Z,29.47
2023-03-10T10:02:23.276Z,29.47
2023-03-10T10:05:03.727Z,28.57
2023-03-10T10:07:44.098Z,29.63
2023-03-10T10:10:24.758Z,29.97
2023-03-10T10:12:54.618Z,32.87
2023-03-10T10:15:28.027Z,30.77
2023-03-10T10:18:20.337Z,33.13
2023-03-10T10:20:59.299Z,28.50
2023-03-10T10:23:43.899Z,27.17
2023-03-10T10:26:15.973Z,29.70
2023-03-10T10:29:12.733Z,34.97
2023-03-10T10:31:39.867Z,31.07
2023-03-10T10:34:22.719Z,32.17
2023-03-10T10:36:55.158Z,25.30
2023-03-10T10:39:28.125Z,30.23
2023-03-10T10:42:11.835Z,28.03
2023-03-10T10:44:44.710Z,29.10
2023-03-10T10:47:34.487Z,27.97
2023-03-10T10:50:20.243Z,29.70
2023-03-10T10:52:53.053Z,32.67
2023-03-10T10:55:34.781Z,31.83
2023-03-10T10:58:23.356Z,31.63
2023-03-10T11:01:09.748Z,27.93
2023-03-10T11:03:43.020Z,27.67
2023-03-10T11:06:27.233Z,28.03
2023-03-10T11:09:14.497Z,30.53
2023-03-10T11:12:08.756Z,33.30
2023-03-10T11:14:52.475Z,26.77
2023-03-10T11:17:43.785Z,27.37
2023-03-10T11:20:29.172Z,28.43
2023-03-10T11:23:29.660Z,25.77
2023-03-10T11:26:10.925Z,31.13
2023-03-10T11:28:46.774Z,28.03
2023-03-10T11:31:45.136Z,29.80
2023-03-10T11:34:32.040Z,31.33
2023-03-10T11:37:16.198Z,28.03
2023-03-10T11:40:43.148Z,29.60
2023-03-10T11:43:30.994Z,25.88
2023-03-10T11:46:28.690Z,26.23
2023-03-10T11:49:11.015Z,29.73
2023-03-10T11:52:01.355Z,23.70
2023-03-10T11:54:38.256Z,29.98
2023-03-10T11:57:17.993Z,26.83
2023-03-10T11:59:57.677Z,26.02
2023-03-10T12:03:00.668Z,27.70
2023-03-10T12:05:31.855Z,26.77
2023-03-10T12:08:02.946Z,24.90
2023-03-10T12:10:31.642Z,22.80
2023-03-10T12:12:59.285Z,23.70
2023-03-10T12:15:40.018Z,22.52
2023-03-10T12:18:08.245Z,26.10
2023-03-10T12:20:36.461Z,21.63
2023-03-10T12:23:09.517Z,24.23
2023-03-10T12:25:38.291Z,23.77
2023-03-10T12:28:17.575Z,22.52
2023-03-10T12:31:00.700Z,24.20
2023-03-10T12:33:34.319Z,23.27
2023-03-10T12:36:25.240Z,22.80
2023-03-10T12:38:54.753Z,25.55
2023-03-10T12:41:27.961Z,26.63
2023-03-10T12:43:57.639Z,19.92
2023-03-10T12:46:43.541Z,22.10
2023-03-10T12:49:33.677Z,17.17
2023-03-10T12:52:24.917Z,20.52
2023-03-10T12:55:18.156Z,21.55
2023-03-10T12:58:14.279Z,17.88
2023-03-10T13:01:01.522Z,17.73
2023-03-10T13:03:43.937Z,12.45
2023-03-10T13:06:11.050Z,11.27
2023-03-10T13:08:55.187Z,9.90
2023-03-10T13:11:39.965Z,8.95
2023-03-10T13:14:22.923Z,9.10
2023-03-10T13:17:00.190Z,10.45
2023-03-10T13:19:32.207Z,7.20
2023-03-10T13:21:59.876Z,12.00
2023-03-10T13:24:36.290Z,10.30
2023-03-10T13:27:24.003Z,7.88
2023-03-10T13:30:20.079Z,8.85
2023-03-10T13:33:02.614Z,7.38
2023-03-10T13:35:36.174Z,7.15
2023-03-10T13:38:19.116Z,10.18
2023-03-10T13:41:10.781Z,10.80
2023-03-10T13:43:48.582Z,8.90
2023-03-10T13:46:22.981Z,8.73
2023-03-10T13:48:50.740Z,8.63
2023-03-10T13:51:32.398Z,7.80
2023-03-10T13:54:21.921Z,6.63
2023-03-10T13:57:17.738Z,8.80
2023-03-10T13:59:46.967Z,7.47
2023-03-10T14:02:35.651Z,8.77
2023-03-10T14:05:06.304Z,7.43
2023-03-10T14:07:38.224Z,6.53
2023-03-10T14:10:05.118Z,8.88
2023-03-10T14:12:58.555Z,6.22
2023-03-10T14:15:28.070Z,7.53
2023-03-10T14:18:07.185Z,8.10
2023-03-10T14:20:40.342Z,7.97
2023-03-10T14:23:19.427Z,6.85
2023-03-10T14:25:48.536Z,7.82
2023-03-10T14:28:24.950Z,10.48
2023-03-10T14:30:52.434Z,8.15
2023-03-10T14:33:19.647Z,9.98
2023-03-10T14:35:47.124Z,10.02
2023-03-10T14:38:14.280Z,9.57
2023-03-10T14:40:50.587Z,9.38
2023-03-10T14:43:23.043Z,10.07
2023-03-10T14:45:52.364Z,8.75
2023-03-10T14:48:23.792Z,11.80
2023-03-10T14:50:51.210Z,7.65
2023-03-10T14:53:24.015Z,13.75
2023-03-10T14:55:54.236Z,8.93
2023-03-10T14:58:25.554Z,9.80
2023-03-10T15:00:53.076Z,9.60
2023-03-10T15:03:20.347Z,12.20
2023-03-10T15:05:49.294Z,9.65
2023-03-10T15:08:17.957Z,10.10
2023-03-10T15:10:50.436Z,8.50
2023-03-10T15:13:20.998Z,11.57
2023-03-10T15:15:49.205Z,11.02
2023-03-10T15:18:20.448Z,8.07
2023-03-10T15:20:47.831Z,6.93
2023-03-10T15:23:18.847Z,9.77
2023-03-10T15:25:46.945Z,8.60
2023-03-10T15:28:14.248Z,9.30
2023-03-10T15:30:42.108Z,11.27
2023-03-10T15:33:10.736Z,11.25
2023-03-10T15:35:39.066Z,10.90
2023-03-10T15:38:06.687Z,10.57
2023-03-10T15:40:34.939Z,10.45
2023-03-10T15:43:02.259Z,9.43
2023-03-10T15:45:31.212Z,9.52
2023-03-10T15:47:58.580Z,9.48
2023-03-10T15:50:25.876Z,11.55
2023-03-10T15:52:56.496Z,15.40
2023-03-10T15:55:24.519Z,9.57
2023-03-10T15:57:52.247Z,11.52
2023-03-10T16:00:23.177Z,10.38
2023-03-10T16:02:50.898Z,15.68
2023-03-10T16:05:19.340Z,12.20
2023-03-10T16:07:46.842Z,14.88
2023-03-10T16:10:18.668Z,11.20
2023-03-10T16:12:46.004Z,13.27
2023-03-10T16:15:16.935Z,14.25
2023-03-10T16:17:45.153Z,11.18
2023-03-10T16:20:13.893Z,9.77
2023-03-10T16:22:43.056Z,12.25
2023-03-10T16:25:19.012Z,11.75
2023-03-10T16:27:46.871Z,12.60
2023-03-10T16:30:17.067Z,13.80
2023-03-10T16:32:49.359Z,13.68
2023-03-10T16:35:17.659Z,13.55
2023-03-10T16:37:44.904Z,16.35
2023-03-10T16:40:12.638Z,11.32
2023-03-10T16:42:43.326Z,15.35
2023-03-10T16:45:11.095Z,15.98
2023-03-10T16:47:38.390Z,13.27
2023-03-10T16:50:06.023Z,15.18
2023-03-10T16:52:41.142Z,13.63
2023-03-10T16:55:16.769Z,10.13
2023-03-10T16:57:45.963Z,11.82
2023-03-10T17:00:14.139Z,11.43
2023-03-10T17:02:41.164Z,12.30
2023-03-10T17:05:10.158Z,13.57
2023-03-10T17:07:46.489Z,13.38
2023-03-10T17:10:20.539Z,11.75
2023-03-10T17:12:47.599Z,12.30
2023-03-10T17:15:14.698Z,13.70
2023-03-10T17:17:41.837Z,12.82
2023-03-10T17:20:09.776Z,13.40
2023-03-10T17:22:37.931Z,12.27
2023-03-10T17:25:06.459Z,11.10
2023-03-10T17:27:33.543Z,10.82
2023-03-10T17:30:00.963Z,12.85
2023-03-10T17:32:28.517Z,15.63
2023-03-10T17:34:56.067Z,14.43
2023-03-10T17:37:23.242Z,14.30
2023-03-10T17:39:50.301Z,12.60
2023-03-10T17:42:17.591Z,12.55
2023-03-10T17:44:44.632Z,15.00
2023-03-10T17:47:12.328Z,14.57
2023-03-10T17:49:41.098Z,14.18
2023-03-10T17:52:08.515Z,16.58
2023-03-10T17:54:35.797Z,17.00
2023-03-10T17:57:02.969Z,14.38
2023-03-10T17:59:31.939Z,20.17
2023-03-10T18:01:59.183Z,15.60
2023-03-10T18:04:29.709Z,15.73
2023-03-10T18:06:56.828Z,16.30
2023-03-10T18:09:23.871Z,14.05
2023-03-10T18:11:50.965Z,15.15
2023-03-10T18:14:18.142Z,15.15
2023-03-10T18:16:45.285Z,17.60
2023-03-10T18:19:12.648Z,15.45
2023-03-10T18:21:39.758Z,16.17
2023-03-10T18:24:08.413Z,14.60
2023-03-10T18:26:36.656Z,19.27
2023-03-10T18:29:03.983Z,21.38
2023-03-10T18:31:34.490Z,15.05
2023-03-10T18:34:02.616Z,17.23
2023-03-10T18:36:30.608Z,15.45
2023-03-10T18:38:58.112Z,15.70
2023-03-10T18:41:30.720Z,17.33
2023-03-10T18:43:58.273Z,17.33
2023-03-10T18:46:25.595Z,18.02
2023-03-10T18:48:55.815Z,16.65
2023-03-10T18:51:25.792Z,16.37
2023-03-10T18:53:53.467Z,21.40
2023-03-10T18:56:20.971Z,22.30
2023-03-10T18:58:47.987Z,17.15
2023-03-10T19:01:15.785Z,19.70
2023-03-10T19:03:42.993Z,20.85
2023-03-10T19:06:10.798Z,17.08
2023-03-10T19:08:39.870Z,17.92
2023-03-10T19:11:07.369Z,14.43
2023-03-10T19:13:35.086Z,16.27
2023-03-10T19:16:08.083Z,19.90
2023-03-10T19:18:35.945Z,18.30
2023-03-10T19:21:03.895Z,15.35
2023-03-10T19:23:32.277Z,16.73
2023-03-10T19:25:59.513Z,16.15
2023-03-10T19:28:26.600Z,22.63
2023-03-10T19:30:53.667Z,18.75
2023-03-10T19:33:20.699Z,21.43
2023-03-10T19:35:47.746Z,15.98
2023-03-10T19:38:14.806Z,21.05
2023-03-10T19:40:45.273Z,23.97
2023-03-10T19:43:12.251Z,17.65
2023-03-10T19:45:39.221Z,21.15
2023-03-10T19:48:06.586Z,15.00
2023-03-10T19:50:33.684Z,15.00
2023-03-10T19:53:00.893Z,19.97
2023-03-10T19:55:29.559Z,19.77
2023-03-10T19:57:57.787Z,15.33
2023-03-10T20:00:31.271Z,17.53
2023-03-10T20:02:58.893Z,15.98
2023-03-10T20:05:26.966Z,15.77
2023-03-10T20:07:54.304Z,17.70
2023-03-10T20:10:21.521Z,19.27
2023-03-10T20:12:48.649Z,21.13
2023-03-10T20:15:17.320Z,18.00
2023-03-10T20:17:44.871Z,18.87
2023-03-10T20:20:15.167Z,18.00
2023-03-10T20:22:47.639Z,18.60
2023-03-10T20:25:20.964Z,18.97
2023-03-10T20:27:51.617Z,18.10
2023-03-10T20:30:29.461Z,21.05
2023-03-10T20:32:58.523Z,17.73
2023-03-10T20:35:27.786Z,18.93
2023-03-10T20:37:54.889Z,21.97
2023-03-10T20:40:24.376Z,21.30
2023-03-10T20:42:54.176Z,22.30
2023-03-10T20:45:22.997Z,21.88
2023-03-10T20:47:50.388Z,18.27
2023-03-10T20:50:17.738Z,18.30
2023-03-10T20:52:44.855Z,19.07
2023-03-10T20:55:20.235Z,20.90
2023-03-10T20:57:48.866Z,18.80
2023-03-10T21:00:18.757Z,20.03
2023-03-10T21:02:49.035Z,16.87
2023-03-10T21:05:16.578Z,19.40
2023-03-10T21:07:43.651Z,23.90
2023-03-10T21:10:13.392Z,17.90
2023-03-10T21:12:43.067Z,19.87
2023-03-10T21:15:13.877Z,25.08
2023-03-10T21:17:41.317Z,17.67
2023-03-10T21:20:09.531Z,24.40
2023-03-10T21:22:39.054Z,20.07
2023-03-10T21:25:09.536Z,19.40
2023-03-10T21:27:36.768Z,22.93
2023-03-10T21:30:09.885Z,24.83
2023-03-10T21:32:38.013Z,18.47
2023-03-10T21:35:06.359Z,17.30
2023-03-10T21:37:33.605Z,17.77
2023-03-10T21:40:01.332Z,20.30
2023-03-10T21:42:28.310Z,19.07
2023-03-10T21:44:55.978Z,21.63
2023-03-10T21:47:23.018Z,19.23
2023-03-10T21:49:50.044Z,17.17
2023-03-10T21:52:17.185Z,15.70
2023-03-10T21:54:44.661Z,17.07
2023-03-10T21:57:11.959Z,18.53
2023-03-10T21:59:39.317Z,21.23
2023-03-10T22:02:08.254Z,21.93
2023-03-10T22:04:36.606Z,21.97
2023-03-10T22:07:03.639Z,25.37
2023-03-10T22:09:31.986Z,23.10
2023-03-10T22:11:58.989Z,27.50
2023-03-10T22:14:26.618Z,24.10
2023-03-10T22:16:53.629Z,26.90
2023-03-10T22:19:20.715Z,23.33
2023-03-10T22:21:47.720Z,26.70
2023-03-10T22:24:14.828Z,28.43
2023-03-10T22:26:42.127Z,26.10
2023-03-10T22:29:09.432Z,32.53
2023-03-10T22:31:36.639Z,28.63
2023-03-10T22:34:04.088Z,27.43
2023-03-10T22:36:31.376Z,30.93
2023-03-10T22:38:59.553Z,38.70
2023-03-10T22:41:28.003Z,29.20
2023-03-10T22:43:58.308Z,32.27
2023-03-10T22:46:25.900Z,26.97
2023-03-10T22:48:52.976Z,29.20
2023-03-10T22:51:19.978Z,28.23
2023-03-10T22:53:47.135Z,29.83
2023-03-10T22:56:14.777Z,31.57
2023-03-10T22:58:42.060Z,37.17
2023-03-10T23:01:09.299Z,29.23
2023-03-10T23:03:36.467Z,31.13
2023-03-10T23:06:06.702Z,39.00
2023-03-10T23:08:37.536Z,32.70
2023-03-10T23:11:12.877Z,31.93
2023-03-10T23:13:40.448Z,30.27
2023-03-10T23:16:08.653Z,33.53
2023-03-10T23:18:36.219Z,35.53
2023-03-10T23:21:04.109Z,33.07
2023-03-10T23:23:32.040Z,35.97
2023-03-10T23:25:59.306Z,32.77
2023-03-10T23:28:26.437Z,39.63
2023-03-10T23:30:54.394Z,34.20
2023-03-10T23:33:24.221Z,33.30
2023-03-10T23:35:54.338Z,32.80
2023-03-10T23:38:25.059Z,32.73
2023-03-10T23:40:54.071Z,37.87
2023-03-10T23:43:21.635Z,30.40
2023-03-10T23:45:48.912Z,32.67
2023-03-10T23:48:18.649Z,36.93
2023-03-10T23:50:48.323Z,35.07
2023-03-10T23:53:18.060Z,31.60
2023-03-10T23:55:47.432Z,34.40
2023-03-10T23:58:17.308Z,33.07
